CDU9 weather

CLOSED Dunnville Airport
Dunnville, Ontario, Canada

Public forecast

Using degrees Celsius for public forecast. Weather courtesy of forecast.io.

Closest aviation weather report (METAR) to Dunnville Airport

Closest report is John C. Munro Hamilton International Airport, 23.4 nm (43.4 km) NW. Retrieved 2020/06/03 05:00 UTC (25 minutes ago):

CYHM 030500Z 00000KT 15SM FEW045 FEW150 BKN250 19/16 A2968 RMK SC1AC1CI4 SLP050 DENSITY ALT 1800FT

Closest aviation forecast (TAF) to Dunnville Airport

Closest forecast is John C. Munro Hamilton International Airport, 23.4 nm (43.4 km) NW. Retrieved 2020-06-03 00:42 UTC (5 hours ago):

TAF TAF CYHM 022341Z 0300/0324 24012G22KT P6SM BKN050 TEMPO 0300/0303 P6SM -SHRA PROB40 0300/0303 VRB15G30KT 11/2SM +TSRA BKN020 OVC050CB FM030300 VRB03KT P6SM SCT060 FM030900 27005KT P6SM SCT050 BKN120 TEMPO 0309/0313 P6SM -SHRA BKN050 BKN120 PROB30 0310/0313 VRB15G30KT 2SM TSRA BR BKN020 OVC050CB FM031300 25010KT P6SM -SHRA BKN050 OVC120 PROB40 0313/0315 11/2SM +TSRA BR BKN020 OVC050CB FM031500 27012KT P6SM BKN080 FM032100 28010G20KT P6SM FEW050 FM032300 27008KT P6SM BKN070 RMK NXT FCST BY 030600Z